createdAt,value
2019-04-19T00:02:08.096Z,100.00
2019-04-19T00:04:35.260Z,100.00
2019-04-19T00:07:14.373Z,100.00
2019-04-19T00:09:46.975Z,100.00
2019-04-19T00:12:20.762Z,100.00
2019-04-19T00:14:37.858Z,100.00
2019-04-19T00:17:14.767Z,100.00
2019-04-19T00:19:58.054Z,100.00
2019-04-19T00:22:38.647Z,100.00
2019-04-19T00:24:37.835Z,100.00
2019-04-19T00:27:07.648Z,100.00
2019-04-19T00:29:44.770Z,100.00
2019-04-19T00:32:20.710Z,100.00
2019-04-19T00:34:38.147Z,100.00
2019-04-19T00:37:07.852Z,100.00
2019-04-19T00:39:52.753Z,100.00
2019-04-19T00:42:35.643Z,100.00
2019-04-19T00:45:09.080Z,100.00
2019-04-19T00:47:41.162Z,100.00
2019-04-19T00:50:05.983Z,100.00
2019-04-19T00:52:52.257Z,100.00
2019-04-19T00:55:03.632Z,100.00
2019-04-19T00:57:36.070Z,100.00
2019-04-19T00:59:54.895Z,100.00
2019-04-19T01:02:24.878Z,100.00
2019-04-19T01:04:57.298Z,100.00
2019-04-19T01:07:30.858Z,100.00
2019-04-19T01:10:09.825Z,100.00
2019-04-19T01:12:43.193Z,100.00
2019-04-19T01:15:05.786Z,100.00
2019-04-19T01:17:46.011Z,100.00
2019-04-19T01:20:01.182Z,100.00
2019-04-19T01:22:30.141Z,100.00
2019-04-19T01:24:58.250Z,100.00
2019-04-19T01:27:29.538Z,100.00
2019-04-19T01:29:59.376Z,100.00
2019-04-19T01:32:28.383Z,100.00
2019-04-19T01:35:03.476Z,100.00
2019-04-19T01:37:28.688Z,100.00
2019-04-19T01:40:14.963Z,100.00
2019-04-19T01:42:43.854Z,100.00
2019-04-19T01:45:29.279Z,100.00
2019-04-19T01:48:22.158Z,100.00
2019-04-19T01:50:50.777Z,100.00
2019-04-19T01:53:21.771Z,100.00
2019-04-19T01:55:35.813Z,100.00
2019-04-19T01:58:06.782Z,100.00
2019-04-19T02:00:39.797Z,100.00
2019-04-19T02:03:07.561Z,100.00
2019-04-19T02:05:36.204Z,100.00
2019-04-19T02:08:08.391Z,100.00
2019-04-19T02:11:26.802Z,100.00
2019-04-19T02:13:51.294Z,100.00
2019-04-19T02:16:16.993Z,100.00
2019-04-19T02:18:43.092Z,100.00
2019-04-19T02:21:12.919Z,100.00
2019-04-19T02:23:50.794Z,100.00
2019-04-19T02:26:16.817Z,100.00
2019-04-19T02:28:44.573Z,100.00
2019-04-19T02:31:37.399Z,100.00
2019-04-19T02:34:16.095Z,100.00
2019-04-19T02:36:52.187Z,100.00
2019-04-19T02:41:40.112Z,100.00
2019-04-19T02:49:23.815Z,100.00
2019-04-19T02:51:50.235Z,100.00
2019-04-19T02:54:17.018Z,100.00
2019-04-19T02:59:37.174Z,100.00
2019-04-19T03:02:07.462Z,100.00
2019-04-19T03:06:47.706Z,100.00
2019-04-19T03:09:09.311Z,100.00
2019-04-19T03:11:53.284Z,100.00
2019-04-19T03:14:22.373Z,100.00
2019-04-19T03:17:02.250Z,100.00
2019-04-19T03:19:20.950Z,100.00
2019-04-19T03:21:55.029Z,100.00
2019-04-19T03:24:23.885Z,100.00
2019-04-19T03:26:54.060Z,100.00
2019-04-19T03:29:20.913Z,100.00
2019-04-19T03:32:27.993Z,100.00
2019-04-19T03:36:55.016Z,100.00
2019-04-19T03:39:29.798Z,100.00
2019-04-19T03:42:05.155Z,100.00
2019-04-19T03:44:34.343Z,100.00
2019-04-19T03:49:37.192Z,100.00
2019-04-19T03:52:15.646Z,100.00
2019-04-19T03:54:37.239Z,100.00
2019-04-19T03:57:04.803Z,100.00
2019-04-19T03:59:20.319Z,100.00
2019-04-19T04:01:53.290Z,100.00
2019-04-19T04:04:24.080Z,100.00
2019-04-19T04:06:50.552Z,100.00
2019-04-19T04:09:25.064Z,100.00
2019-04-19T04:12:03.234Z,100.00
2019-04-19T04:14:41.384Z,100.00
2019-04-19T04:17:00.174Z,100.00
2019-04-19T04:19:31.505Z,100.00
2019-04-19T04:22:00.728Z,100.00
2019-04-19T04:24:36.226Z,100.00
2019-04-19T04:27:07.658Z,100.00
2019-04-19T04:29:36.488Z,100.00
2019-04-19T04:32:15.089Z,100.00
2019-04-19T04:34:47.065Z,100.00
2019-04-19T04:37:20.389Z,100.00
2019-04-19T04:39:34.502Z,100.00
2019-04-19T04:42:11.314Z,100.00
2019-04-19T04:45:02.166Z,100.00
2019-04-19T04:47:25.716Z,100.00
2019-04-19T04:50:03.150Z,100.00
2019-04-19T04:52:33.583Z,100.00
2019-04-19T04:55:05.527Z,100.00
2019-04-19T04:57:42.858Z,100.00
2019-04-19T05:00:07.573Z,100.00
2019-04-19T05:02:55.322Z,100.00
2019-04-19T05:05:24.536Z,100.00
2019-04-19T05:07:58.070Z,100.00
2019-04-19T05:10:24.858Z,100.00
2019-04-19T05:15:43.329Z,100.00
2019-04-19T05:18:05.038Z,100.00
2019-04-19T05:20:29.145Z,100.00
2019-04-19T05:22:59.368Z,100.00
2019-04-19T05:25:36.268Z,100.00
2019-04-19T05:28:05.560Z,100.00
2019-04-19T05:30:13.317Z,100.00
2019-04-19T05:32:49.034Z,100.00
2019-04-19T05:35:25.845Z,100.00
2019-04-19T05:38:00.857Z,100.00
2019-04-19T05:40:38.881Z,100.00
2019-04-19T05:43:37.233Z,100.00
2019-04-19T05:46:03.721Z,100.00
2019-04-19T05:48:20.982Z,100.00
2019-04-19T05:51:06.115Z,100.00
2019-04-19T05:53:20.076Z,100.00
2019-04-19T05:55:38.965Z,100.00
2019-04-19T05:58:16.513Z,100.00
2019-04-19T06:00:55.931Z,100.00
2019-04-19T06:03:16.528Z,100.00
2019-04-19T06:08:18.596Z,100.00
2019-04-19T06:10:47.911Z,100.00
2019-04-19T06:13:14.172Z,100.00
2019-04-19T06:16:04.195Z,100.00
2019-04-19T06:18:26.082Z,100.00
2019-04-19T06:21:04.221Z,100.00
2019-04-19T06:23:38.713Z,100.00
2019-04-19T06:26:35.425Z,100.00
2019-04-19T06:28:43.928Z,100.00
2019-04-19T06:31:14.251Z,97.56
2019-04-19T06:33:32.091Z,95.87
2019-04-19T06:35:53.771Z,95.24
2019-04-19T06:38:17.921Z,96.96
2019-04-19T06:40:56.432Z,90.71
2019-04-19T06:43:33.580Z,92.45
2019-04-19T06:46:02.606Z,88.14
2019-04-19T06:48:22.215Z,84.34
2019-04-19T06:50:53.814Z,86.57
2019-04-19T06:53:18.984Z,83.74
2019-04-19T06:55:51.461Z,82.15
2019-04-19T06:58:24.022Z,86.60
2019-04-19T07:01:00.630Z,82.49
2019-04-19T07:03:19.620Z,80.62
2019-04-19T07:06:06.429Z,74.07
2019-04-19T07:08:59.371Z,76.87
2019-04-19T07:11:11.236Z,78.96
2019-04-19T07:13:32.297Z,76.68
2019-04-19T07:16:16.097Z,75.01
2019-04-19T07:18:33.768Z,75.00
2019-04-19T07:21:12.004Z,73.09
2019-04-19T07:23:43.733Z,73.58
2019-04-19T07:26:16.987Z,72.78
2019-04-19T07:28:28.491Z,72.26
2019-04-19T07:31:01.683Z,67.92
2019-04-19T07:33:41.509Z,68.18
2019-04-19T07:36:17.356Z,65.42
2019-04-19T07:38:53.357Z,69.60
2019-04-19T07:41:16.655Z,68.85
2019-04-19T07:43:48.354Z,62.09
2019-04-19T07:46:28.056Z,58.23
2019-04-19T07:48:40.650Z,61.44
2019-04-19T07:51:15.205Z,62.64
2019-04-19T07:53:46.267Z,56.94
2019-04-19T07:56:23.897Z,56.10
2019-04-19T07:59:05.094Z,51.42
2019-04-19T08:04:24.156Z,59.83
2019-04-19T08:06:43.728Z,60.30
2019-04-19T08:09:11.022Z,59.71
2019-04-19T08:11:46.850Z,55.36
2019-04-19T08:14:07.645Z,53.44
2019-04-19T08:28:56.711Z,50.87
2019-04-19T08:31:19.568Z,50.00
2019-04-19T08:33:49.504Z,50.11
2019-04-19T08:36:25.512Z,52.28
2019-04-19T08:39:19.137Z,49.36
2019-04-19T08:41:36.741Z,49.62
2019-04-19T08:44:10.305Z,49.06
2019-04-19T08:46:28.197Z,49.48
2019-04-19T08:49:24.127Z,45.64
2019-04-19T08:51:46.822Z,46.53
2019-04-19T08:54:36.940Z,43.04
2019-04-19T08:56:56.762Z,44.87
2019-04-19T08:59:39.891Z,47.82
2019-04-19T09:02:05.572Z,45.91
2019-04-19T09:04:34.907Z,44.92
2019-04-19T09:09:40.754Z,39.09
2019-04-19T09:12:06.791Z,37.21
2019-04-19T09:14:43.683Z,35.15
2019-04-19T09:17:17.404Z,33.27
2019-04-19T09:20:06.274Z,37.50
2019-04-19T09:22:09.140Z,36.58
2019-04-19T09:24:30.969Z,36.49
2019-04-19T09:27:07.891Z,32.66
2019-04-19T09:29:45.973Z,32.64
2019-04-19T09:32:02.718Z,33.04
2019-04-19T09:34:26.216Z,32.61
2019-04-19T09:37:03.703Z,33.29
2019-04-19T09:39:36.111Z,29.89
2019-04-19T09:41:59.904Z,32.59
2019-04-19T09:44:31.838Z,33.08
2019-04-19T09:46:55.047Z,31.42
2019-04-19T09:49:43.104Z,31.93
2019-04-19T09:52:11.409Z,32.43
2019-04-19T09:54:45.958Z,31.19
2019-04-19T09:57:15.780Z,32.25
2019-04-19T09:59:32.317Z,30.40
2019-04-19T10:02:00.479Z,32.28
2019-04-19T10:04:27.280Z,32.86
2019-04-19T10:06:56.551Z,31.20
2019-04-19T10:09:26.954Z,32.21
2019-04-19T10:11:57.914Z,33.00
2019-04-19T10:14:27.627Z,30.55
2019-04-19T10:16:58.624Z,30.30
2019-04-19T10:19:28.567Z,31.35
2019-04-19T10:22:00.333Z,31.71
2019-04-19T10:24:29.452Z,32.48
2019-04-19T10:27:01.001Z,31.16
2019-04-19T10:29:34.765Z,31.54
2019-04-19T10:32:12.639Z,30.44
2019-04-19T10:34:41.377Z,32.20
2019-04-19T10:37:11.299Z,29.12
2019-04-19T10:39:39.974Z,29.18
2019-04-19T10:42:10.318Z,30.14
2019-04-19T10:44:40.209Z,31.99
2019-04-19T10:47:10.156Z,32.11
2019-04-19T10:49:47.075Z,29.77
2019-04-19T10:52:23.763Z,27.40
2019-04-19T10:54:54.973Z,29.34
2019-04-19T10:57:25.450Z,28.90
2019-04-19T10:59:57.028Z,29.55
2019-04-19T11:02:28.443Z,30.09
2019-04-19T11:04:58.748Z,29.10
2019-04-19T11:07:27.672Z,29.29
2019-04-19T11:09:57.747Z,29.68
2019-04-19T11:12:26.621Z,28.38
2019-04-19T11:14:55.254Z,28.47
2019-04-19T11:17:25.550Z,30.03
2019-04-19T11:20:11.184Z,29.73
2019-04-19T11:22:25.865Z,31.59
2019-04-19T11:24:54.605Z,30.39
2019-04-19T11:27:23.267Z,27.49
2019-04-19T11:29:54.376Z,27.62
2019-04-19T11:32:26.036Z,28.41
2019-04-19T11:34:55.688Z,28.48
2019-04-19T11:37:25.501Z,28.79
2019-04-19T11:39:55.133Z,27.01
2019-04-19T11:42:23.984Z,29.37
2019-04-19T11:44:53.778Z,27.80
2019-04-19T11:47:23.114Z,28.38
2019-04-19T11:49:51.872Z,27.27
2019-04-19T11:52:22.083Z,28.28
2019-04-19T11:54:50.845Z,28.49
2019-04-19T11:57:40.755Z,29.21
2019-04-19T12:00:13.625Z,28.50
2019-04-19T12:02:44.198Z,28.18
2019-04-19T12:05:21.110Z,28.25
2019-04-19T12:07:44.393Z,28.97
2019-04-19T12:10:14.472Z,28.16
2019-04-19T12:12:43.489Z,27.36
2019-04-19T12:15:14.061Z,29.26
2019-04-19T12:17:44.330Z,29.62
2019-04-19T12:20:13.268Z,29.22
2019-04-19T12:22:42.016Z,28.63
2019-04-19T12:25:11.923Z,28.42
2019-04-19T12:27:41.548Z,29.40
2019-04-19T12:30:11.571Z,29.34
2019-04-19T12:32:43.659Z,29.17
2019-04-19T12:35:13.076Z,27.95
2019-04-19T12:37:43.112Z,28.84
2019-04-19T12:40:12.857Z,27.41
2019-04-19T12:42:42.158Z,30.98
2019-04-19T12:45:13.238Z,28.37
2019-04-19T12:47:42.907Z,27.04
2019-04-19T12:50:14.282Z,27.72
2019-04-19T12:52:44.067Z,27.48
2019-04-19T12:55:15.280Z,27.71
2019-04-19T12:57:48.300Z,28.21
2019-04-19T13:00:18.283Z,27.27
2019-04-19T13:02:49.712Z,28.43
2019-04-19T13:05:20.438Z,26.90
2019-04-19T13:07:49.374Z,27.99
2019-04-19T13:10:18.371Z,27.68
2019-04-19T13:12:49.745Z,26.94
2019-04-19T13:15:19.937Z,27.19
2019-04-19T13:17:48.616Z,27.81
2019-04-19T13:20:22.925Z,27.92
2019-04-19T13:22:50.533Z,27.62
2019-04-19T13:25:23.510Z,27.72
2019-04-19T13:27:56.307Z,27.48
2019-04-19T13:30:31.430Z,26.34
2019-04-19T13:32:54.666Z,26.62
2019-04-19T13:35:23.503Z,27.47
2019-04-19T13:37:57.055Z,26.70
2019-04-19T13:40:28.310Z,27.79
2019-04-19T13:42:58.789Z,26.94
2019-04-19T13:45:31.330Z,27.14
2019-04-19T13:47:58.706Z,27.54
2019-04-19T13:50:33.180Z,27.27
2019-04-19T13:52:58.135Z,27.85
2019-04-19T13:55:26.836Z,27.21
2019-04-19T13:57:55.726Z,27.89
2019-04-19T14:00:42.726Z,28.04
2019-04-19T14:03:11.986Z,27.25
2019-04-19T14:05:41.680Z,27.06
2019-04-19T14:08:11.157Z,27.59
2019-04-19T14:10:41.321Z,27.66
2019-04-19T14:13:10.622Z,28.10
2019-04-19T14:15:40.775Z,29.37
2019-04-19T14:18:10.855Z,27.78
2019-04-19T14:20:45.176Z,26.55
2019-04-19T14:23:10.192Z,26.64
2019-04-19T14:25:39.113Z,27.33
2019-04-19T14:28:09.335Z,26.24
2019-04-19T14:30:39.835Z,27.33
2019-04-19T14:33:08.536Z,27.58
2019-04-19T14:35:37.739Z,27.72
2019-04-19T14:38:07.593Z,27.61
2019-04-19T14:40:37.521Z,27.21
2019-04-19T14:43:06.704Z,27.13
2019-04-19T14:45:35.565Z,26.40
2019-04-19T14:48:06.690Z,27.25
2019-04-19T14:50:46.258Z,27.95
2019-04-19T14:53:08.049Z,27.79
2019-04-19T14:55:38.096Z,27.34
2019-04-19T14:58:06.999Z,27.84
2019-04-19T15:00:36.897Z,28.21
2019-04-19T15:03:09.362Z,28.24
2019-04-19T15:05:43.636Z,28.45
2019-04-19T15:08:12.831Z,28.10
2019-04-19T15:10:41.873Z,28.50
2019-04-19T15:13:10.582Z,29.09
2019-04-19T15:15:39.216Z,29.20
2019-04-19T15:18:08.772Z,28.01
2019-04-19T15:20:43.762Z,27.31
2019-04-19T15:23:10.902Z,27.14
2019-04-19T15:25:40.414Z,27.80
2019-04-19T15:28:09.291Z,28.53
2019-04-19T15:30:41.836Z,26.97
2019-04-19T15:33:08.735Z,27.68
2019-04-19T15:35:37.586Z,28.26
2019-04-19T15:38:06.160Z,28.67
2019-04-19T15:40:36.167Z,28.00
2019-04-19T15:43:05.368Z,26.80
2019-04-19T15:45:34.932Z,28.18
2019-04-19T15:48:04.777Z,28.11
2019-04-19T15:50:34.058Z,28.16
2019-04-19T15:53:04.058Z,29.20
2019-04-19T15:55:32.956Z,29.13
2019-04-19T15:58:02.126Z,29.38
2019-04-19T16:00:50.814Z,30.45
2019-04-19T16:03:24.031Z,31.12
2019-04-19T16:06:00.368Z,32.95
2019-04-19T16:08:47.526Z,34.33
2019-04-19T16:11:30.982Z,34.70
2019-04-19T16:13:59.892Z,37.68
2019-04-19T16:16:29.088Z,36.51
2019-04-19T16:18:58.402Z,36.77
2019-04-19T16:21:37.131Z,38.02
2019-04-19T16:23:58.659Z,38.80
2019-04-19T16:26:27.330Z,40.31
2019-04-19T16:28:55.996Z,41.63
2019-04-19T16:31:24.639Z,38.50
2019-04-19T16:33:54.179Z,40.04
2019-04-19T16:36:23.323Z,42.41
2019-04-19T16:38:52.996Z,42.14
2019-04-19T16:41:23.071Z,43.38
2019-04-19T16:43:51.866Z,43.53
2019-04-19T16:46:24.270Z,44.26
2019-04-19T16:48:50.979Z,46.49
2019-04-19T16:51:19.695Z,47.97
2019-04-19T16:53:49.776Z,44.78
2019-04-19T16:56:19.581Z,43.12
2019-04-19T16:58:48.800Z,45.41
2019-04-19T17:01:18.647Z,47.91
2019-04-19T17:03:47.845Z,45.23
2019-04-19T17:06:16.653Z,45.39
2019-04-19T17:08:46.187Z,44.72
2019-04-19T17:11:15.513Z,46.11
2019-04-19T17:13:44.798Z,46.48
2019-04-19T17:16:25.221Z,47.14
2019-04-19T17:18:58.968Z,48.57
2019-04-19T17:21:29.422Z,47.57
2019-04-19T17:23:58.730Z,47.14
2019-04-19T17:26:28.890Z,45.99
2019-04-19T17:28:59.037Z,45.81
2019-04-19T17:31:28.312Z,44.67
2019-04-19T17:33:58.030Z,48.00
2019-04-19T17:36:28.200Z,48.69
2019-04-19T17:38:58.739Z,49.13
2019-04-19T17:41:28.149Z,49.76
2019-04-19T17:43:57.452Z,50.62
2019-04-19T17:46:26.498Z,50.15
2019-04-19T17:48:56.793Z,49.25
2019-04-19T17:51:25.675Z,51.89
2019-04-19T17:53:54.372Z,52.46
2019-04-19T17:56:23.655Z,54.52
2019-04-19T17:58:54.008Z,54.43
2019-04-19T18:01:24.198Z,55.25
2019-04-19T18:03:53.285Z,56.75
2019-04-19T18:06:21.992Z,57.52
2019-04-19T18:08:51.798Z,58.28
2019-04-19T18:11:25.190Z,60.18
2019-04-19T18:13:51.081Z,59.34
2019-04-19T18:16:20.647Z,59.43
2019-04-19T18:18:52.283Z,59.02
2019-04-19T18:21:23.854Z,57.83
2019-04-19T18:23:58.321Z,55.64
2019-04-19T18:26:28.267Z,57.44
2019-04-19T18:28:53.051Z,57.07
2019-04-19T18:31:28.463Z,56.12
2019-04-19T18:34:01.114Z,58.13
2019-04-19T18:36:25.701Z,58.19
2019-04-19T18:38:53.947Z,60.21
2019-04-19T18:41:23.170Z,61.53
2019-04-19T18:44:04.973Z,64.46
2019-04-19T18:46:22.734Z,63.78
2019-04-19T18:48:51.789Z,65.77
2019-04-19T18:51:31.681Z,65.66
2019-04-19T18:54:05.836Z,66.26
2019-04-19T18:56:25.408Z,67.28
2019-04-19T18:58:54.218Z,67.89
2019-04-19T19:01:30.956Z,72.00
2019-04-19T19:03:53.854Z,72.56
2019-04-19T19:06:28.608Z,73.89
2019-04-19T19:09:01.032Z,73.47
2019-04-19T19:11:25.787Z,73.18
2019-04-19T19:13:55.165Z,74.96
2019-04-19T19:16:27.146Z,73.99
2019-04-19T19:18:59.112Z,75.57
2019-04-19T19:21:33.879Z,75.47
2019-04-19T19:24:26.059Z,75.72
2019-04-19T19:26:36.027Z,73.77
2019-04-19T19:29:02.301Z,74.17
2019-04-19T19:31:32.558Z,73.38
2019-04-19T19:34:01.675Z,72.53
2019-04-19T19:36:37.987Z,73.80
2019-04-19T19:39:08.595Z,73.14
2019-04-19T19:42:21.799Z,71.34
2019-04-19T19:44:13.222Z,71.92
2019-04-19T19:47:07.105Z,73.17
2019-04-19T19:51:49.941Z,72.05
2019-04-19T19:54:43.459Z,76.62
2019-04-19T19:57:02.279Z,77.94
2019-04-19T19:59:24.004Z,78.39
2019-04-19T20:01:54.543Z,81.59
2019-04-19T20:04:13.218Z,81.50
2019-04-19T20:06:49.083Z,80.16
2019-04-19T20:09:16.683Z,80.11
2019-04-19T20:11:43.783Z,80.96
2019-04-19T20:14:15.668Z,81.67
2019-04-19T20:16:45.396Z,81.36
2019-04-19T20:19:16.250Z,82.96
2019-04-19T20:21:50.468Z,83.59
2019-04-19T20:24:31.268Z,85.76
2019-04-19T20:26:57.284Z,86.48
2019-04-19T20:29:22.300Z,85.41
2019-04-19T20:31:46.021Z,85.36
2019-04-19T20:34:22.653Z,84.25
2019-04-19T20:36:47.148Z,86.34
2019-04-19T20:39:17.959Z,86.55
2019-04-19T20:41:50.720Z,87.20
2019-04-19T20:44:35.000Z,88.25
2019-04-19T20:46:48.299Z,91.75
2019-04-19T20:49:17.229Z,92.16
2019-04-19T20:52:00.807Z,93.94
2019-04-19T20:54:46.320Z,94.97
2019-04-19T20:57:21.191Z,100.00
2019-04-19T20:59:41.122Z,99.39
2019-04-19T21:02:15.371Z,97.79
2019-04-19T21:04:34.653Z,95.93
2019-04-19T21:07:08.915Z,97.40
2019-04-19T21:09:37.363Z,98.52
2019-04-19T21:12:04.609Z,95.88
2019-04-19T21:14:38.190Z,98.89
2019-04-19T21:17:06.933Z,98.22
2019-04-19T21:19:38.333Z,99.50
2019-04-19T21:22:06.327Z,98.40
2019-04-19T21:24:51.900Z,97.94
2019-04-19T21:27:10.761Z,100.00
2019-04-19T21:29:39.334Z,100.00
2019-04-19T21:32:06.938Z,99.83
2019-04-19T21:34:38.598Z,100.00
2019-04-19T21:37:08.756Z,100.00
2019-04-19T21:39:44.133Z,100.00
2019-04-19T21:42:09.752Z,100.00
2019-04-19T21:44:38.806Z,100.00
2019-04-19T21:47:10.882Z,100.00
2019-04-19T21:49:39.007Z,100.00
2019-04-19T21:52:13.786Z,100.00
2019-04-19T21:54:38.848Z,96.90
2019-04-19T21:57:08.897Z,99.50
2019-04-19T21:59:40.673Z,100.00
2019-04-19T22:02:08.741Z,100.00
2019-04-19T22:04:43.787Z,100.00
2019-04-19T22:07:09.017Z,100.00
2019-04-19T22:09:41.453Z,100.00
2019-04-19T22:12:08.233Z,100.00
2019-04-19T22:14:38.123Z,100.00
2019-04-19T22:17:12.807Z,100.00
2019-04-19T22:19:38.691Z,100.00
2019-04-19T22:22:09.025Z,100.00
2019-04-19T22:24:39.865Z,100.00
2019-04-19T22:27:09.520Z,100.00
2019-04-19T22:29:38.269Z,100.00
2019-04-19T22:32:13.623Z,100.00
2019-04-19T22:34:37.756Z,100.00
2019-04-19T22:37:06.800Z,100.00
2019-04-19T22:39:35.680Z,100.00
2019-04-19T22:42:04.734Z,100.00
2019-04-19T22:44:34.631Z,100.00
2019-04-19T22:47:03.855Z,100.00
2019-04-19T22:49:35.194Z,100.00
2019-04-19T22:52:03.171Z,100.00
2019-04-19T22:54:32.861Z,100.00
2019-04-19T22:57:09.543Z,100.00
2019-04-19T22:59:32.016Z,100.00
2019-04-19T23:02:10.350Z,100.00
2019-04-19T23:04:39.116Z,100.00
2019-04-19T23:07:10.961Z,100.00
2019-04-19T23:09:38.860Z,100.00
2019-04-19T23:12:07.795Z,100.00
2019-04-19T23:14:50.540Z,100.00
2019-04-19T23:17:28.447Z,100.00
2019-04-19T23:19:53.344Z,100.00
2019-04-19T23:22:22.824Z,100.00
2019-04-19T23:24:56.773Z,100.00
2019-04-19T23:27:34.654Z,100.00
2019-04-19T23:29:54.033Z,100.00
2019-04-19T23:32:28.573Z,100.00
2019-04-19T23:34:54.179Z,100.00
2019-04-19T23:37:24.033Z,100.00
2019-04-19T23:39:54.375Z,100.00
2019-04-19T23:42:23.148Z,100.00
2019-04-19T23:44:56.412Z,100.00
2019-04-19T23:47:22.469Z,100.00
2019-04-19T23:49:55.509Z,100.00
2019-04-19T23:52:23.385Z,100.00
2019-04-19T23:54:52.391Z,100.00
2019-04-19T23:57:26.244Z,100.00
2019-04-19T23:59:59.788Z,100.00
